Time;durP1;ratioP1;P1;durP2;ratioP2;P2;SDS_P1;SDS_P2;PMS_P1;PMS_P2;Temp;Humidity;BMP_temperature;BMP_pressure;BME280_temperature;BME280_humidity;BME280_pressure;Samples;Min_cycle;Max_cycle;Signal;HPM_P1;HPM_P2
2021/12/25 00:00:09;;;;;;;12.65;5.53;;;;;;;5.56;100.00;100204.38;5028623;28;20089;-71
2021/12/25 00:02:36;;;;;;;22.25;10.40;;;;;;;5.56;100.00;100225.56;5037502;28;20053;-71
2021/12/25 00:05:04;;;;;;;25.55;11.30;;;;;;;5.52;100.00;100224.72;5030048;28;20051;-72
2021/12/25 00:07:31;;;;;;;22.42;10.15;;;;;;;5.46;100.00;100220.75;5035361;28;20119;-71
2021/12/25 00:09:59;;;;;;;19.30;7.93;;;;;;;5.43;100.00;100222.25;5032145;28;20409;-71
2021/12/25 00:12:27;;;;;;;18.20;7.97;;;;;;;5.35;100.00;100224.16;5035565;28;20056;-73
2021/12/25 00:14:54;;;;;;;19.23;8.77;;;;;;;5.31;100.00;100223.28;5038253;28;20147;-72
2021/12/25 00:17:21;;;;;;;21.35;10.27;;;;;;;5.27;100.00;100222.47;5030916;28;20571;-72
2021/12/25 00:19:47;;;;;;;11.45;5.10;;;;;;;5.18;100.00;100223.94;5040067;28;20053;-72
2021/12/25 00:22:14;;;;;;;22.55;10.32;;;;;;;5.19;100.00;100226.28;5029944;28;20049;-72
2021/12/25 00:24:44;;;;;;;18.55;8.02;;;;;;;5.15;100.00;100225.47;5030666;28;20072;-71
2021/12/25 00:27:36;;;;;;;22.50;9.70;;;;;;;5.18;100.00;100234.91;5043276;28;20051;-71
2021/12/25 00:34:50;;;;;;;21.88;9.68;;;;;;;5.00;100.00;100223.69;5034785;28;20079;-71
2021/12/25 00:37:17;;;;;;;18.17;6.85;;;;;;;4.96;100.00;100227.53;5035922;28;20156;-71
2021/12/25 00:39:43;;;;;;;18.77;7.18;;;;;;;4.94;100.00;100236.16;5035531;28;20057;-71
2021/12/25 00:42:11;;;;;;;13.25;5.05;;;;;;;4.88;100.00;100223.94;5036448;28;20144;-71
2021/12/25 00:44:38;;;;;;;14.43;6.03;;;;;;;4.86;100.00;100237.19;5033060;28;20068;-71
2021/12/25 00:47:06;;;;;;;21.20;9.27;;;;;;;4.85;100.00;100243.06;5036876;28;20358;-72
2021/12/25 00:49:32;;;;;;;19.92;9.95;;;;;;;4.83;100.00;100237.94;5035958;28;20103;-73
2021/12/25 00:51:59;;;;;;;16.13;7.82;;;;;;;4.83;100.00;100239.91;5033738;28;20132;-72
2021/12/25 00:54:26;;;;;;;22.40;10.30;;;;;;;4.81;100.00;100240.28;5033236;28;20057;-72
2021/12/25 00:56:53;;;;;;;21.13;9.95;;;;;;;4.77;100.00;100236.69;5027264;28;20057;-71
2021/12/25 00:59:19;;;;;;;21.65;10.82;;;;;;;4.79;100.00;100245.31;5034750;28;20041;-73
2021/12/25 01:01:46;;;;;;;25.05;11.68;;;;;;;4.78;100.00;100243.75;5033080;28;20136;-73
2021/12/25 01:04:13;;;;;;;22.95;10.43;;;;;;;4.77;100.00;100249.59;5028495;28;20103;-73
2021/12/25 01:06:40;;;;;;;8.60;3.40;;;;;;;4.72;100.00;100249.91;5035896;28;20533;-73
2021/12/25 01:09:07;;;;;;;24.92;11.05;;;;;;;4.69;100.00;100240.47;5031103;28;20041;-74
2021/12/25 01:11:36;;;;;;;28.25;13.45;;;;;;;4.70;100.00;100242.06;5036778;28;20076;-75
2021/12/25 01:14:19;;;;;;;26.85;13.40;;;;;;;4.71;100.00;100251.88;5035992;28;20053;-74
2021/12/25 01:25:20;;;;;;;24.75;11.95;;;;;;;4.56;100.00;100250.06;5024585;28;20601;-74
2021/12/25 01:49:34;;;;;;;30.33;15.25;;;;;;;4.45;100.00;100243.63;5042740;28;20512;-75
2021/12/25 01:52:01;;;;;;;26.60;13.15;;;;;;;4.46;100.00;100250.69;5038030;28;20050;-74
2021/12/25 01:54:27;;;;;;;27.45;13.65;;;;;;;4.48;100.00;100258.53;5033153;28;20052;-75
2021/12/25 01:56:57;;;;;;;26.08;12.93;;;;;;;4.46;100.00;100249.91;5042180;28;20144;-74
2021/12/25 01:59:23;;;;;;;18.98;7.47;;;;;;;4.44;100.00;100250.28;5035869;28;20049;-75
2021/12/25 02:01:51;;;;;;;10.60;5.05;;;;;;;4.36;100.00;100254.03;5025657;28;20076;-75
2021/12/25 02:04:22;;;;;;;22.42;10.65;;;;;;;4.35;100.00;100255.22;5029304;28;20057;-75
2021/12/25 02:06:49;;;;;;;23.48;11.43;;;;;;;4.33;100.00;100267.69;5030361;28;20148;-74
2021/12/25 02:09:16;;;;;;;24.80;11.45;;;;;;;4.29;100.00;100255.91;5038346;28;20052;-74
2021/12/25 02:11:44;;;;;;;14.80;7.35;;;;;;;4.19;100.00;100257.28;5032048;28;20470;-73
2021/12/25 02:14:11;;;;;;;21.00;10.55;;;;;;;4.22;100.00;100250.31;5033074;28;20417;-75
2021/12/25 02:16:52;;;;;;;22.90;10.13;;;;;;;4.22;100.00;100259.28;5029433;28;20053;-74
2021/12/25 02:19:32;;;;;;;25.17;13.15;;;;;;;4.22;100.00;100262.03;5035968;28;20080;-75
2021/12/25 02:22:01;;;;;;;29.33;14.98;;;;;;;4.18;100.00;100255.69;5035130;28;20745;-73
2021/12/25 02:24:28;;;;;;;29.77;15.18;;;;;;;4.20;100.00;100261.63;5038233;28;20053;-74
2021/12/25 02:26:55;;;;;;;10.35;5.15;;;;;;;4.14;100.00;100262.28;5041276;28;20053;-74
2021/12/25 02:29:22;;;;;;;14.57;6.20;;;;;;;4.10;100.00;100264.97;5047624;28;20048;-74
2021/12/25 02:31:49;;;;;;;23.48;10.60;;;;;;;4.03;100.00;100253.09;5039631;28;20049;-74
2021/12/25 02:34:15;;;;;;;21.83;7.90;;;;;;;4.02;100.00;100255.03;5031483;28;20137;-74
2021/12/25 02:36:42;;;;;;;11.98;4.63;;;;;;;3.99;100.00;100252.25;5039665;28;20053;-73
2021/12/25 02:39:09;;;;;;;26.38;10.18;;;;;;;3.98;100.00;100250.66;5043397;28;20132;-74
2021/12/25 02:41:35;;;;;;;27.80;12.85;;;;;;;3.96;100.00;100242.03;5034904;28;20779;-74
2021/12/25 02:44:02;;;;;;;22.58;9.23;;;;;;;3.89;100.00;100244.63;5032726;28;20057;-73
2021/12/25 02:46:29;;;;;;;27.98;13.73;;;;;;;3.91;100.00;100237.63;5039179;28;20618;-74
2021/12/25 02:48:58;;;;;;;22.92;9.25;;;;;;;3.85;100.00;100238.31;5035960;28;20814;-74
2021/12/25 02:51:25;;;;;;;26.90;12.95;;;;;;;3.84;100.00;100242.97;5038084;28;20054;-74
2021/12/25 02:53:52;;;;;;;20.25;7.05;;;;;;;3.81;100.00;100245.66;5043298;28;20053;-74
2021/12/25 02:56:19;;;;;;;25.05;10.98;;;;;;;3.78;100.00;100241.69;5037246;28;20057;-74
2021/12/25 02:58:45;;;;;;;26.42;11.05;;;;;;;3.77;100.00;100244.78;5041085;28;20054;-73
2021/12/25 03:01:18;;;;;;;25.40;10.38;;;;;;;3.77;100.00;100242.06;5029766;28;20177;-74
2021/12/25 03:03:45;;;;;;;27.75;13.88;;;;;;;3.71;100.00;100244.28;5042737;28;20077;-73
2021/12/25 03:06:13;;;;;;;28.90;14.50;;;;;;;3.72;100.00;100253.31;5032519;28;20060;-74
2021/12/25 03:08:40;;;;;;;24.20;10.93;;;;;;;3.72;100.00;100253.31;5044155;28;20072;-73
2021/12/25 03:11:09;;;;;;;20.58;9.25;;;;;;;3.70;100.00;100258.34;5041726;28;20156;-73
2021/12/25 03:13:44;;;;;;;29.63;13.93;;;;;;;3.69;100.00;100254.03;5036506;28;20084;-74
2021/12/25 03:16:11;;;;;;;;;;;;;;;3.66;100.00;100247.34;5039824;28;20552;-72
2021/12/25 03:18:45;;;;;;;13.20;5.60;;;;;;;3.64;100.00;100241.44;5031783;28;19980;-73
2021/12/25 03:21:13;;;;;;;28.40;13.23;;;;;;;3.64;100.00;100238.69;5030680;28;20061;-74
2021/12/25 03:23:41;;;;;;;30.92;15.23;;;;;;;3.65;100.00;100242.22;5036269;28;20048;-74
2021/12/25 03:26:08;;;;;;;29.52;13.98;;;;;;;3.59;100.00;100236.25;5035936;28;21559;-73
2021/12/25 03:28:39;;;;;;;25.33;12.52;;;;;;;3.59;100.00;100240.94;5042520;28;20056;-75
2021/12/25 03:31:13;;;;;;;25.63;11.93;;;;;;;3.55;100.00;100240.88;5028557;28;20061;-74
2021/12/25 03:33:40;;;;;;;31.90;16.60;;;;;;;3.52;100.00;100246.28;5031024;28;20045;-73
2021/12/25 03:36:07;;;;;;;11.05;5.60;;;;;;;3.44;100.00;100245.34;5040861;28;20055;-74
2021/12/25 03:38:33;;;;;;;27.92;11.13;;;;;;;3.47;100.00;100243.84;5034283;28;20052;-75
2021/12/25 03:41:00;;;;;;;29.75;12.45;;;;;;;3.48;100.00;100251.66;5028701;28;20063;-73
2021/12/25 03:43:28;;;;;;;30.35;14.32;;;;;;;3.45;100.00;100246.13;5030254;28;20465;-74
2021/12/25 03:45:55;;;;;;;33.25;15.65;;;;;;;3.50;100.00;100254.84;5039922;28;20067;-74
2021/12/25 03:58:52;;;;;;;23.02;9.85;;;;;;;3.38;100.00;100254.19;5030402;28;20136;-74
2021/12/25 04:04:16;;;;;;;29.00;12.98;;;;;;;3.38;100.00;100259.66;5031750;28;20073;-75
2021/12/25 04:06:49;;;;;;;27.95;12.80;;;;;;;3.33;100.00;100255.28;5043360;28;20063;-74
2021/12/25 04:09:30;;;;;;;28.35;14.20;;;;;;;3.33;100.00;100251.75;5042472;28;20578;-74
2021/12/25 04:12:03;;;;;;;22.85;9.38;;;;;;;3.28;100.00;100246.56;5029298;28;20133;-74
2021/12/25 04:14:30;;;;;;;25.90;13.18;;;;;;;3.32;100.00;100258.38;5030246;28;20076;-74
2021/12/25 04:16:57;;;;;;;15.40;7.65;;;;;;;3.21;100.00;100258.16;5036428;28;20453;-75
2021/12/25 04:19:23;;;;;;;23.60;11.50;;;;;;;3.25;100.00;100260.97;5038121;28;20045;-75
2021/12/25 04:21:57;;;;;;;14.15;5.97;;;;;;;3.22;100.00;100265.22;5036070;28;20092;-73
2021/12/25 04:24:26;;;;;;;18.88;7.20;;;;;;;3.19;100.00;100268.66;5032640;28;20509;-72
2021/12/25 04:26:52;;;;;;;25.58;12.30;;;;;;;3.19;100.00;100267.84;5039826;28;20092;-75
2021/12/25 05:02:02;;;;;;;21.20;9.05;;;;;;;2.91;100.00;100308.22;5035879;28;20136;-74
2021/12/25 05:04:35;;;;;;;22.02;10.70;;;;;;;2.92;100.00;100309.81;5036930;28;20053;-74
2021/12/25 05:07:05;;;;;;;20.35;9.50;;;;;;;2.82;100.00;100305.69;5030473;28;20155;-75
2021/12/25 05:09:32;;;;;;;20.23;9.95;;;;;;;2.79;100.00;100300.94;5028497;28;20107;-74
2021/12/25 05:11:58;;;;;;;19.38;9.20;;;;;;;2.75;100.00;100311.00;5028329;28;20052;-74
2021/12/25 05:14:25;;;;;;;14.07;6.15;;;;;;;2.74;100.00;100315.66;5040771;28;20496;-76
2021/12/25 05:16:52;;;;;;;22.80;10.05;;;;;;;2.76;100.00;100309.84;5029488;28;20057;-73
2021/12/25 05:19:19;;;;;;;15.90;6.65;;;;;;;2.73;100.00;100314.06;5040325;28;20045;-74
2021/12/25 05:21:46;;;;;;;22.83;10.82;;;;;;;2.74;100.00;100320.34;5029045;28;20061;-74
2021/12/25 05:24:14;;;;;;;17.55;9.02;;;;;;;2.67;100.00;100315.50;5028955;28;20629;-73
2021/12/25 05:26:41;;;;;;;22.55;10.43;;;;;;;2.65;100.00;100317.00;5039994;28;20061;-73
2021/12/25 05:29:10;;;;;;;17.65;8.32;;;;;;;2.62;100.00;100323.97;5039337;28;20045;-75
2021/12/25 05:31:37;;;;;;;21.63;10.18;;;;;;;2.61;100.00;100322.34;5029712;28;20064;-76
2021/12/25 05:34:04;;;;;;;21.70;9.70;;;;;;;2.60;100.00;100330.94;5039272;28;20045;-75
2021/12/25 05:36:31;;;;;;;14.40;6.20;;;;;;;2.59;100.00;100335.59;5032101;28;20041;-74
2021/12/25 05:38:59;;;;;;;18.42;8.25;;;;;;;2.56;100.00;100338.22;5039837;28;20049;-75
2021/12/25 05:41:31;;;;;;;21.23;8.60;;;;;;;2.54;100.00;100340.53;5030397;28;20102;-75
2021/12/25 05:43:57;;;;;;;15.00;6.25;;;;;;;2.44;100.00;100335.59;5029465;28;20084;-73
2021/12/25 05:46:24;;;;;;;19.13;7.70;;;;;;;2.49;100.00;100346.25;5035991;28;20174;-76
2021/12/25 05:48:51;;;;;;;18.02;7.60;;;;;;;2.44;100.00;100341.84;5029257;28;20722;-74
2021/12/25 05:51:23;;;;;;;16.13;6.78;;;;;;;2.42;100.00;100346.88;5040904;28;20474;-74
2021/12/25 05:53:49;;;;;;;20.25;8.85;;;;;;;2.42;100.00;100351.53;5031932;28;20049;-74
2021/12/25 05:56:16;;;;;;;18.42;8.52;;;;;;;2.45;100.00;100359.03;5032915;28;20049;-74
2021/12/25 05:58:43;;;;;;;18.02;8.07;;;;;;;2.45;100.00;100348.91;5046708;28;20061;-76
2021/12/25 06:01:11;;;;;;;12.55;5.47;;;;;;;2.44;100.00;100350.03;5047618;28;20099;-74
2021/12/25 06:03:38;;;;;;;17.00;7.22;;;;;;;2.42;100.00;100359.72;5042113;28;20057;-74
2021/12/25 06:06:06;;;;;;;20.85;8.40;;;;;;;2.40;100.00;100362.03;5035336;28;20076;-74
2021/12/25 06:08:33;;;;;;;15.00;6.72;;;;;;;2.38;100.00;100361.56;5036140;28;20049;-74
2021/12/25 06:11:02;;;;;;;20.50;9.63;;;;;;;2.35;100.00;100359.53;5039760;28;20052;-74
2021/12/25 06:13:37;;;;;;;18.17;8.88;;;;;;;2.35;100.00;100360.34;5032466;28;20083;-74
2021/12/25 06:16:04;;;;;;;18.70;8.70;;;;;;;2.34;100.00;100357.97;5034068;28;20064;-74
2021/12/25 06:18:31;;;;;;;17.33;8.35;;;;;;;2.29;100.00;100363.66;5040723;28;20049;-74
2021/12/25 06:20:57;;;;;;;16.55;8.07;;;;;;;2.32;100.00;100374.69;5034389;28;20164;-75
2021/12/25 06:23:26;;;;;;;20.95;8.90;;;;;;;2.34;100.00;100360.69;5045556;28;20049;-76
2021/12/25 06:25:52;;;;;;;18.52;8.82;;;;;;;2.34;100.00;100366.16;5036596;28;20091;-75
2021/12/25 06:28:19;;;;;;;17.90;7.18;;;;;;;2.33;100.00;100368.06;5039383;28;20053;-74
2021/12/25 06:30:46;;;;;;;16.63;7.35;;;;;;;2.28;100.00;100362.88;5033160;28;20108;-76
2021/12/25 06:33:12;;;;;;;17.52;7.05;;;;;;;2.25;100.00;100366.31;5038598;28;20063;-74
2021/12/25 06:35:39;;;;;;;17.60;8.90;;;;;;;2.24;100.00;100358.47;5035082;28;20144;-75
2021/12/25 06:38:05;;;;;;;20.30;9.43;;;;;;;2.25;100.00;100362.78;5035707;28;20057;-74
2021/12/25 06:40:32;;;;;;;15.15;7.20;;;;;;;2.24;100.00;100361.22;5038806;28;20056;-76
2021/12/25 06:42:59;;;;;;;17.55;9.38;;;;;;;2.20;100.00;100372.00;5030480;28;20140;-74
2021/12/25 06:45:25;;;;;;;17.73;8.20;;;;;;;2.14;100.00;100367.16;5049373;28;20106;-75
2021/12/25 06:47:52;;;;;;;18.40;10.00;;;;;;;2.14;100.00;100370.72;5049878;28;20057;-75
2021/12/25 06:50:18;;;;;;;16.17;8.00;;;;;;;2.13;100.00;100380.03;5044497;28;20037;-77
2021/12/25 06:52:45;;;;;;;18.20;9.52;;;;;;;2.11;100.00;100378.78;5043974;28;20103;-76
2021/12/25 06:55:13;;;;;;;15.25;6.88;;;;;;;2.09;100.00;100389.25;5033680;28;20119;-74
2021/12/25 06:57:47;;;;;;;7.95;4.18;;;;;;;2.04;100.00;100379.41;5034432;28;20565;-74
2021/12/25 07:00:15;;;;;;;16.92;7.47;;;;;;;2.04;100.00;100389.50;5051665;28;20543;-74
2021/12/25 07:02:41;;;;;;;13.35;5.90;;;;;;;2.03;100.00;100393.38;5046388;28;20425;-75
2021/12/25 07:05:08;;;;;;;16.85;6.32;;;;;;;1.98;100.00;100393.63;5039261;28;20100;-74
2021/12/25 07:07:35;;;;;;;19.92;8.60;;;;;;;1.98;100.00;100407.25;5040219;28;20045;-76
2021/12/25 07:10:02;;;;;;;23.30;9.90;;;;;;;1.96;100.00;100409.56;5037329;28;20117;-76
2021/12/25 07:12:32;;;;;;;18.30;7.47;;;;;;;1.94;100.00;100398.19;5030727;28;20053;-76
2021/12/25 07:14:58;;;;;;;20.73;8.10;;;;;;;1.95;100.00;100416.13;5044466;28;20137;-75
2021/12/25 07:17:24;;;;;;;16.10;7.63;;;;;;;1.94;100.00;100409.91;5033684;28;20049;-73
2021/12/25 07:19:51;;;;;;;10.85;3.90;;;;;;;1.86;100.00;100412.78;5042519;28;20053;-74
2021/12/25 07:22:17;;;;;;;17.33;7.80;;;;;;;1.87;100.00;100406.97;5042054;28;20085;-78
2021/12/25 07:24:44;;;;;;;19.73;8.35;;;;;;;1.86;100.00;100426.41;5032906;28;20291;-74
2021/12/25 07:27:10;;;;;;;19.77;9.35;;;;;;;1.86;100.00;100423.69;5041166;28;20598;-76
2021/12/25 07:29:37;;;;;;;15.93;7.07;;;;;;;1.81;100.00;100413.81;5037722;28;20148;-75
2021/12/25 07:32:04;;;;;;;13.85;6.15;;;;;;;1.76;100.00;100422.22;5035025;28;20742;-74
2021/12/25 07:34:31;;;;;;;20.75;8.55;;;;;;;1.74;100.00;100419.06;5039777;28;20060;-75
2021/12/25 07:36:58;;;;;;;15.27;5.78;;;;;;;1.73;100.00;100422.13;5031535;28;20063;-75
2021/12/25 07:39:25;;;;;;;13.68;5.65;;;;;;;1.72;100.00;100431.47;5035983;28;20597;-77
2021/12/25 07:41:51;;;;;;;20.02;9.70;;;;;;;1.72;100.00;100434.19;5029338;28;20053;-75
2021/12/25 07:44:18;;;;;;;16.77;8.30;;;;;;;1.69;100.00;100429.44;5029115;28;20116;-75
2021/12/25 07:46:45;;;;;;;14.63;6.40;;;;;;;1.69;100.00;100432.16;5036901;28;20059;-76
2021/12/25 07:49:17;;;;;;;11.82;5.00;;;;;;;1.60;100.00;100439.66;5029100;28;20506;-75
2021/12/25 07:51:44;;;;;;;9.88;4.00;;;;;;;1.57;100.00;100434.91;5029073;28;20061;-75
2021/12/25 07:54:11;;;;;;;9.85;3.63;;;;;;;1.61;100.00;100442.06;5036834;28;20050;-74
2021/12/25 07:56:39;;;;;;;17.65;8.15;;;;;;;1.55;100.00;100450.81;5034220;28;20114;-76
2021/12/25 07:59:06;;;;;;;15.38;5.80;;;;;;;1.50;100.00;100451.84;5034319;28;20516;-77
2021/12/25 08:01:35;;;;;;;14.73;7.32;;;;;;;1.54;100.00;100446.50;5035849;28;20056;-76
2021/12/25 08:04:03;;;;;;;16.73;6.70;;;;;;;1.58;100.00;100456.38;5040538;28;20052;-75
2021/12/25 08:06:31;;;;;;;13.95;6.75;;;;;;;1.52;100.00;100451.50;5054096;28;20144;-75
2021/12/25 08:09:00;;;;;;;16.08;7.32;;;;;;;1.54;100.00;100460.13;5033046;28;20057;-75
2021/12/25 08:11:28;;;;;;;12.95;5.82;;;;;;;1.53;100.00;100453.09;5032717;28;20045;-74
2021/12/25 08:13:55;;;;;;;13.60;6.75;;;;;;;1.54;100.00;100463.66;5029882;28;20069;-74
2021/12/25 08:16:22;;;;;;;10.05;5.13;;;;;;;1.49;100.00;100472.06;5029281;28;20875;-75
2021/12/25 08:18:48;;;;;;;15.48;6.60;;;;;;;1.47;100.00;100468.88;5033825;28;20129;-75
2021/12/25 08:21:15;;;;;;;8.80;4.00;;;;;;;1.44;100.00;100469.56;5030601;28;20073;-76
2021/12/25 08:23:42;;;;;;;16.30;5.43;;;;;;;1.50;100.00;100479.13;5031624;28;20056;-75
2021/12/25 08:26:13;;;;;;;7.97;3.58;;;;;;;1.47;100.00;100479.00;5036456;28;20052;-75
2021/12/25 08:28:39;;;;;;;15.15;5.40;;;;;;;1.49;100.00;100477.50;5042173;28;20454;-75
2021/12/25 08:31:06;;;;;;;10.75;4.40;;;;;;;1.44;100.00;100485.94;5038254;28;20080;-76
2021/12/25 08:33:32;;;;;;;12.10;4.22;;;;;;;1.46;100.00;100493.75;5033777;28;20053;-75
2021/12/25 08:35:59;;;;;;;14.35;5.93;;;;;;;1.49;100.00;100488.41;5033452;28;20047;-74
2021/12/25 08:38:25;;;;;;;11.15;5.05;;;;;;;1.46;100.00;100493.75;5044610;28;20045;-75
2021/12/25 08:40:54;;;;;;;5.25;2.40;;;;;;;1.49;100.00;100488.41;5043669;28;20057;-75
2021/12/25 08:43:24;;;;;;;12.25;5.13;;;;;;;1.45;100.00;100492.19;5035739;28;20160;-75
2021/12/25 08:46:14;;;;;;;10.77;4.75;;;;;;;1.46;100.00;100496.50;5028572;28;20422;-74
2021/12/25 08:48:41;;;;;;;8.98;4.50;;;;;;;1.42;100.00;100501.81;5030221;28;20049;-76
2021/12/25 08:51:10;;;;;;;9.75;4.15;;;;;;;1.43;100.00;100494.44;5041847;28;20056;-75
2021/12/25 08:53:36;;;;;;;7.93;3.13;;;;;;;1.39;100.00;100504.44;5029130;28;20063;-74
2021/12/25 08:56:03;;;;;;;6.45;2.38;;;;;;;1.43;100.00;100506.16;5049939;28;20053;-76
2021/12/25 08:58:31;;;;;;;8.55;2.88;;;;;;;1.44;100.00;100509.66;5030431;28;20042;-74
2021/12/25 09:01:06;;;;;;;7.47;3.15;;;;;;;1.42;100.00;100520.91;5032663;28;20085;-73
2021/12/25 09:03:33;;;;;;;10.18;4.07;;;;;;;1.37;100.00;100515.69;5027977;28;20399;-75
2021/12/25 09:06:02;;;;;;;8.88;3.47;;;;;;;1.34;100.00;100524.53;5033423;28;20049;-74
2021/12/25 09:08:30;;;;;;;5.65;2.83;;;;;;;1.36;100.00;100524.22;5032740;28;20053;-73
2021/12/25 09:10:56;;;;;;;10.18;3.75;;;;;;;1.36;100.00;100526.94;5029536;28;20056;-74
2021/12/25 09:13:23;;;;;;;8.43;3.65;;;;;;;1.36;100.00;100535.09;5027919;28;20049;-74
2021/12/25 09:15:50;;;;;;;9.82;2.90;;;;;;;1.33;100.00;100531.16;5029465;28;20052;-73
2021/12/25 09:18:17;;;;;;;6.22;2.22;;;;;;;1.26;100.00;100528.19;5035475;28;20425;-75
2021/12/25 09:20:44;;;;;;;6.53;2.80;;;;;;;1.22;100.00;100537.38;5030079;28;20048;-77
2021/12/25 09:23:11;;;;;;;5.68;2.90;;;;;;;1.23;100.00;100538.97;5027554;28;20106;-75
2021/12/25 09:25:37;;;;;;;3.47;2.05;;;;;;;1.17;100.00;100540.31;5026359;28;20573;-76
2021/12/25 09:28:04;;;;;;;6.57;3.10;;;;;;;1.15;100.00;100537.16;5033178;28;20095;-75
2021/12/25 09:30:31;;;;;;;4.05;1.90;;;;;;;1.08;100.00;100540.41;5033579;28;20045;-75
2021/12/25 09:32:58;;;;;;;2.75;1.52;;;;;;;1.11;100.00;100545.19;5025868;28;20053;-74
2021/12/25 09:35:25;;;;;;;8.38;2.85;;;;;;;1.20;100.00;100551.34;5034485;28;20705;-76
2021/12/25 09:37:51;;;;;;;5.72;2.75;;;;;;;1.20;100.00;100550.53;5028036;28;20061;-76
2021/12/25 09:40:18;;;;;;;7.88;2.88;;;;;;;1.28;100.00;100553.16;5025782;28;20049;-74
2021/12/25 09:42:45;;;;;;;4.53;2.58;;;;;;;1.27;100.00;100553.50;5028978;28;20056;-76
2021/12/25 09:45:12;;;;;;;7.07;2.65;;;;;;;1.27;100.00;100554.31;5026592;28;20497;-78
2021/12/25 09:47:39;;;;;;;7.13;3.00;;;;;;;1.28;100.00;100558.59;5029060;28;20592;-75
2021/12/25 09:50:08;;;;;;;5.82;2.38;;;;;;;1.26;100.00;100557.34;5032746;28;20055;-75
2021/12/25 09:52:34;;;;;;;5.15;2.00;;;;;;;1.26;99.41;100560.88;5033866;28;20056;-74
2021/12/25 09:55:02;;;;;;;9.20;2.35;;;;;;;1.24;99.89;100567.78;5026354;28;20054;-74
2021/12/25 09:57:34;;;;;;;8.35;2.97;;;;;;;1.26;100.00;100568.25;5031070;28;20045;-74
2021/12/25 10:00:19;;;;;;;7.25;2.67;;;;;;;1.24;99.29;100568.59;5037810;28;20061;-73
2021/12/25 10:02:50;;;;;;;;;;;;;;;1.24;99.35;100568.59;5027666;28;20110;-74
2021/12/25 10:05:32;;;;;;;6.95;2.80;;;;;;;1.33;99.38;100573.94;5049888;28;20377;-73
2021/12/25 10:08:07;;;;;;;9.23;3.17;;;;;;;1.38;99.57;100579.19;5040546;28;20588;-73
2021/12/25 10:10:47;;;;;;;4.57;2.65;;;;;;;1.42;99.14;100580.09;5030828;28;20120;-74
2021/12/25 10:13:28;;;;;;;8.63;2.83;;;;;;;1.49;98.88;100577.59;5025541;28;20156;-73
2021/12/25 10:16:01;;;;;;;7.63;2.55;;;;;;;1.50;98.48;100571.00;5025964;28;20049;-74
2021/12/25 10:18:34;;;;;;;5.47;1.90;;;;;;;1.65;98.46;100586.72;5029647;28;20060;-74
2021/12/25 10:21:16;;;;;;;4.57;2.28;;;;;;;1.73;98.38;100583.88;5036201;28;20077;-75
2021/12/25 10:23:42;;;;;;;8.02;3.00;;;;;;;1.71;96.64;100577.94;5028890;28;20056;-75
2021/12/25 10:26:09;;;;;;;5.45;2.45;;;;;;;1.61;95.68;100564.75;5037853;28;20045;-76
2021/12/25 10:28:39;;;;;;;4.53;2.40;;;;;;;1.71;96.19;100577.94;5045580;28;20272;-75
2021/12/25 10:31:06;;;;;;;6.90;3.85;;;;;;;1.71;96.48;100567.03;5022106;28;20148;-74
2021/12/25 10:33:38;;;;;;;2.22;1.67;;;;;;;1.76;96.50;100566.03;5029676;28;20115;-76
2021/12/25 10:36:21;;;;;;;7.45;2.38;;;;;;;1.73;95.33;100580.34;5035603;28;20057;-74
2021/12/25 10:39:23;;;;;;;5.20;1.58;;;;;;;1.79;95.66;100570.78;5039462;28;20053;-74
2021/12/25 10:41:52;;;;;;;8.68;2.75;;;;;;;1.88;94.32;100568.72;5030672;28;20049;-75
2021/12/25 10:44:24;;;;;;;7.32;2.92;;;;;;;2.01;94.40;100573.84;5039887;28;20547;-74
2021/12/25 10:46:57;;;;;;;2.90;1.25;;;;;;;2.05;94.05;100568.47;5032387;28;20044;-75
2021/12/25 10:49:35;;;;;;;5.63;3.08;;;;;;;2.20;94.97;100565.03;5041139;28;20084;-75
2021/12/25 10:52:28;;;;;;;10.60;2.75;;;;;;;2.51;94.27;100573.38;5031300;28;20053;-75
2021/12/25 10:54:59;;;;;;;9.20;3.00;;;;;;;4.05;93.64;100577.34;5034351;28;20049;-75
2021/12/25 10:57:37;;;;;;;3.45;1.80;;;;;;;6.28;84.76;100578.34;5039504;28;20703;-76
2021/12/25 11:00:24;;;;;;;4.05;2.42;;;;;;;7.52;70.91;100576.63;5034485;28;20140;-75
2021/12/25 11:02:55;;;;;;;5.53;2.63;;;;;;;8.08;66.12;100577.09;5033420;28;20106;-74
2021/12/25 11:05:25;;;;;;;5.18;2.28;;;;;;;7.51;59.99;100575.06;5031121;28;20083;-74
2021/12/25 11:08:07;;;;;;;5.95;2.70;;;;;;;8.55;64.48;100585.25;5042816;28;20102;-74
2021/12/25 11:11:11;;;;;;;6.07;2.80;;;;;;;7.67;58.57;100578.34;5031177;28;20061;-74
2021/12/25 11:13:40;;;;;;;2.92;1.55;;;;;;;7.46;57.22;100573.44;5011627;28;20136;-74
2021/12/25 11:16:27;;;;;;;4.50;2.30;;;;;;;8.43;62.12;100576.53;5030274;28;20053;-74
2021/12/25 11:19:05;;;;;;;5.18;2.30;;;;;;;8.86;59.27;100578.28;5036776;28;20053;-73
2021/12/25 11:21:35;;;;;;;4.90;1.73;;;;;;;9.70;54.80;100568.22;5039550;28;20049;-74
2021/12/25 11:24:14;;;;;;;6.18;2.38;;;;;;;9.29;51.21;100569.75;5037699;28;20049;-74
2021/12/25 11:26:44;;;;;;;4.85;2.03;;;;;;;9.91;51.65;100564.63;5031511;28;20589;-74
2021/12/25 11:29:14;;;;;;;4.55;2.20;;;;;;;11.37;50.40;100567.28;5043500;28;20459;-74
2021/12/25 11:31:43;;;;;;;9.98;2.72;;;;;;;12.73;48.22;100565.97;5030539;28;20131;-73
2021/12/25 11:34:10;;;;;;;6.28;2.50;;;;;;;13.27;45.67;100558.56;5047774;28;20052;-73
2021/12/25 11:36:39;;;;;;;7.25;2.65;;;;;;;14.07;44.85;100562.00;5041796;28;20497;-76
2021/12/25 11:39:07;;;;;;;3.38;2.00;;;;;;;14.80;44.58;100564.59;5050357;28;20139;-75
2021/12/25 11:41:36;;;;;;;3.70;1.92;;;;;;;15.33;40.05;100575.41;5038547;28;20434;-74
2021/12/25 11:44:06;;;;;;;6.47;2.30;;;;;;;14.42;41.32;100569.75;5043433;28;20604;-76
2021/12/25 11:46:44;;;;;;;6.22;2.65;;;;;;;13.18;41.27;100561.06;5030164;28;20053;-73
2021/12/25 11:49:16;;;;;;;3.72;2.05;;;;;;;11.61;41.87;100566.31;5030923;28;20119;-75
2021/12/25 11:51:45;;;;;;;5.28;2.22;;;;;;;10.42;46.76;100563.00;5029678;28;20496;-74
2021/12/25 11:55:18;;;;;;;5.10;2.00;;;;;;;10.34;48.72;100563.41;5033037;28;20136;-75
2021/12/25 11:59:47;;;;;;;4.40;2.05;;;;;;;10.42;47.25;100554.69;5038445;28;20117;-75
2021/12/25 12:02:36;;;;;;;1.92;1.20;;;;;;;10.39;46.82;100554.69;5032820;28;20052;-75
2021/12/25 12:05:27;;;;;;;2.95;1.50;;;;;;;11.56;43.26;100539.03;5029631;28;20088;-76
2021/12/25 12:08:09;;;;;;;2.17;1.20;;;;;;;13.65;42.54;100545.25;5041599;28;20047;-75
2021/12/25 12:10:42;;;;;;;4.90;2.05;;;;;;;14.84;38.28;100548.59;5030615;28;20053;-75
2021/12/25 12:13:32;;;;;;;5.93;2.20;;;;;;;15.36;36.83;100544.66;5028541;28;20132;-75
2021/12/25 12:16:02;;;;;;;5.18;2.25;;;;;;;15.61;37.06;100540.50;5039511;28;20045;-75
2021/12/25 12:18:35;;;;;;;3.67;1.85;;;;;;;15.79;37.39;100544.41;5031607;28;20080;-76
2021/12/25 12:21:18;;;;;;;2.80;1.52;;;;;;;16.36;35.09;100544.50;5029870;28;20045;-75
2021/12/25 12:26:52;;;;;;;4.25;1.80;;;;;;;16.99;32.08;100542.72;5033967;28;20076;-76
2021/12/25 12:29:37;;;;;;;3.53;1.70;;;;;;;17.73;34.07;100540.41;5040978;28;20128;-75
2021/12/25 12:32:04;;;;;;;4.33;2.03;;;;;;;18.06;32.53;100555.69;5028104;28;20065;-76
2021/12/25 12:34:40;;;;;;;4.70;1.98;;;;;;;18.11;33.16;100554.31;5030770;28;20718;-75
2021/12/25 12:37:23;;;;;;;5.82;2.05;;;;;;;17.40;30.46;100558.63;5039509;28;20076;-75
2021/12/25 12:39:53;;;;;;;5.28;1.85;;;;;;;17.38;30.61;100550.69;5034604;28;20140;-75
2021/12/25 12:42:49;;;;;;;5.30;2.15;;;;;;;17.08;32.09;100554.00;5027596;28;20494;-75
2021/12/25 12:45:22;;;;;;;5.03;1.92;;;;;;;17.24;31.56;100550.34;5029544;28;20063;-75
2021/12/25 12:48:10;;;;;;;6.13;1.70;;;;;;;17.57;29.23;100560.91;5034465;28;20054;-77
2021/12/25 12:50:39;;;;;;;1.02;0.70;;;;;;;17.21;28.72;100554.81;5035106;28;20127;-75
2021/12/25 12:53:09;;;;;;;3.85;1.40;;;;;;;17.77;31.36;100543.88;5033712;28;20049;-75
2021/12/25 12:55:38;;;;;;;4.28;1.60;;;;;;;17.51;29.45;100559.09;5030650;28;20164;-74
2021/12/25 12:58:16;;;;;;;1.40;1.30;;;;;;;17.77;28.86;100552.25;5028812;28;20059;-75